sensor_id;sensor_type;location;lat;lon;timestamp;P1;durP1;ratioP1;P2;durP2;ratioP2
23555;SDS011;11956;53.184;8.578;2023-05-07T00:02:32;27.05;;;20.00;;
23555;SDS011;11956;53.184;8.578;2023-05-07T00:05:33;29.50;;;20.27;;
23555;SDS011;11956;53.184;8.578;2023-05-07T00:08:34;26.35;;;19.33;;
23555;SDS011;11956;53.184;8.578;2023-05-07T00:11:35;26.58;;;20.58;;
23555;SDS011;11956;53.184;8.578;2023-05-07T00:14:36;28.92;;;21.00;;
23555;SDS011;11956;53.184;8.578;2023-05-07T00:17:37;29.65;;;21.20;;
23555;SDS011;11956;53.184;8.578;2023-05-07T00:20:38;28.85;;;21.13;;
23555;SDS011;11956;53.184;8.578;2023-05-07T00:23:39;27.23;;;21.50;;
23555;SDS011;11956;53.184;8.578;2023-05-07T00:26:39;29.13;;;20.35;;
23555;SDS011;11956;53.184;8.578;2023-05-07T00:29:40;27.90;;;21.42;;
23555;SDS011;11956;53.184;8.578;2023-05-07T00:32:41;28.73;;;21.02;;
23555;SDS011;11956;53.184;8.578;2023-05-07T00:35:42;29.85;;;21.08;;
23555;SDS011;11956;53.184;8.578;2023-05-07T00:38:43;30.63;;;22.10;;
23555;SDS011;11956;53.184;8.578;2023-05-07T00:41:44;26.95;;;20.27;;
23555;SDS011;11956;53.184;8.578;2023-05-07T00:44:46;27.23;;;20.75;;
23555;SDS011;11956;53.184;8.578;2023-05-07T00:47:47;25.77;;;20.17;;
23555;SDS011;11956;53.184;8.578;2023-05-07T00:50:48;26.40;;;20.15;;
23555;SDS011;11956;53.184;8.578;2023-05-07T00:53:49;29.75;;;21.08;;
23555;SDS011;11956;53.184;8.578;2023-05-07T00:56:50;32.15;;;21.83;;
23555;SDS011;11956;53.184;8.578;2023-05-07T00:59:51;28.65;;;21.85;;
23555;SDS011;11956;53.184;8.578;2023-05-07T01:02:52;28.98;;;21.08;;
23555;SDS011;11956;53.184;8.578;2023-05-07T01:05:53;26.83;;;20.40;;
23555;SDS011;11956;53.184;8.578;2023-05-07T01:08:56;25.83;;;20.50;;
23555;SDS011;11956;53.184;8.578;2023-05-07T01:11:57;26.35;;;20.45;;
23555;SDS011;11956;53.184;8.578;2023-05-07T01:14:59;27.67;;;20.42;;
23555;SDS011;11956;53.184;8.578;2023-05-07T01:18:00;26.42;;;21.15;;
23555;SDS011;11956;53.184;8.578;2023-05-07T01:21:07;28.00;;;20.98;;
23555;SDS011;11956;53.184;8.578;2023-05-07T01:24:12;26.10;;;21.13;;
23555;SDS011;11956;53.184;8.578;2023-05-07T01:27:13;31.83;;;21.60;;
23555;SDS011;11956;53.184;8.578;2023-05-07T01:30:15;27.95;;;20.75;;
23555;SDS011;11956;53.184;8.578;2023-05-07T01:33:18;28.98;;;22.08;;
23555;SDS011;11956;53.184;8.578;2023-05-07T01:36:22;28.45;;;21.58;;
23555;SDS011;11956;53.184;8.578;2023-05-07T01:39:27;29.15;;;22.52;;
23555;SDS011;11956;53.184;8.578;2023-05-07T01:45:31;28.65;;;21.48;;
23555;SDS011;11956;53.184;8.578;2023-05-07T01:48:34;30.20;;;22.70;;
23555;SDS011;11956;53.184;8.578;2023-05-07T01:51:35;31.70;;;22.58;;
23555;SDS011;11956;53.184;8.578;2023-05-07T01:54:37;29.83;;;22.38;;
23555;SDS011;11956;53.184;8.578;2023-05-07T01:57:38;28.13;;;21.65;;
23555;SDS011;11956;53.184;8.578;2023-05-07T02:00:40;29.48;;;21.23;;
23555;SDS011;11956;53.184;8.578;2023-05-07T02:03:42;28.60;;;21.40;;
23555;SDS011;11956;53.184;8.578;2023-05-07T02:06:50;27.30;;;20.45;;
23555;SDS011;11956;53.184;8.578;2023-05-07T02:09:51;28.15;;;21.23;;
23555;SDS011;11956;53.184;8.578;2023-05-07T02:12:52;24.92;;;19.27;;
23555;SDS011;11956;53.184;8.578;2023-05-07T02:15:53;26.50;;;20.08;;
23555;SDS011;11956;53.184;8.578;2023-05-07T02:18:54;27.52;;;20.63;;
23555;SDS011;11956;53.184;8.578;2023-05-07T02:21:55;27.60;;;20.88;;
23555;SDS011;11956;53.184;8.578;2023-05-07T02:24:56;27.33;;;20.38;;
23555;SDS011;11956;53.184;8.578;2023-05-07T02:27:57;25.05;;;19.10;;
23555;SDS011;11956;53.184;8.578;2023-05-07T02:31:08;28.55;;;20.15;;
23555;SDS011;11956;53.184;8.578;2023-05-07T02:34:09;26.00;;;19.40;;
23555;SDS011;11956;53.184;8.578;2023-05-07T02:37:10;27.00;;;18.77;;
23555;SDS011;11956;53.184;8.578;2023-05-07T02:40:11;24.38;;;18.33;;
23555;SDS011;11956;53.184;8.578;2023-05-07T02:43:13;23.95;;;18.70;;
23555;SDS011;11956;53.184;8.578;2023-05-07T02:46:17;25.20;;;19.25;;
23555;SDS011;11956;53.184;8.578;2023-05-07T02:49:22;24.80;;;18.63;;
23555;SDS011;11956;53.184;8.578;2023-05-07T02:52:23;28.00;;;19.23;;
23555;SDS011;11956;53.184;8.578;2023-05-07T02:55:24;26.85;;;20.25;;
23555;SDS011;11956;53.184;8.578;2023-05-07T02:58:25;25.60;;;18.83;;
23555;SDS011;11956;53.184;8.578;2023-05-07T03:01:26;28.60;;;20.80;;
23555;SDS011;11956;53.184;8.578;2023-05-07T03:04:39;28.63;;;19.92;;
23555;SDS011;11956;53.184;8.578;2023-05-07T03:07:40;26.23;;;19.38;;
23555;SDS011;11956;53.184;8.578;2023-05-07T03:10:45;26.48;;;18.55;;
23555;SDS011;11956;53.184;8.578;2023-05-07T03:13:46;27.42;;;20.05;;
23555;SDS011;11956;53.184;8.578;2023-05-07T03:16:49;27.02;;;19.90;;
23555;SDS011;11956;53.184;8.578;2023-05-07T03:19:50;27.38;;;19.13;;
23555;SDS011;11956;53.184;8.578;2023-05-07T03:22:51;28.15;;;19.25;;
23555;SDS011;11956;53.184;8.578;2023-05-07T03:25:52;31.38;;;20.58;;
23555;SDS011;11956;53.184;8.578;2023-05-07T03:28:53;25.48;;;19.13;;
23555;SDS011;11956;53.184;8.578;2023-05-07T03:31:55;31.15;;;21.48;;
23555;SDS011;11956;53.184;8.578;2023-05-07T03:34:56;26.35;;;19.08;;
23555;SDS011;11956;53.184;8.578;2023-05-07T03:37:58;30.10;;;20.73;;
23555;SDS011;11956;53.184;8.578;2023-05-07T03:41:00;29.70;;;20.40;;
23555;SDS011;11956;53.184;8.578;2023-05-07T03:44:02;28.33;;;20.67;;
23555;SDS011;11956;53.184;8.578;2023-05-07T03:47:03;31.20;;;21.60;;
23555;SDS011;11956;53.184;8.578;2023-05-07T03:50:05;30.45;;;20.90;;
23555;SDS011;11956;53.184;8.578;2023-05-07T03:53:06;28.48;;;19.77;;
23555;SDS011;11956;53.184;8.578;2023-05-07T03:56:12;28.08;;;20.15;;
23555;SDS011;11956;53.184;8.578;2023-05-07T03:59:14;28.38;;;20.45;;
23555;SDS011;11956;53.184;8.578;2023-05-07T04:02:18;28.77;;;19.73;;
23555;SDS011;11956;53.184;8.578;2023-05-07T04:05:19;26.95;;;19.13;;
23555;SDS011;11956;53.184;8.578;2023-05-07T04:08:23;30.55;;;19.80;;
23555;SDS011;11956;53.184;8.578;2023-05-07T04:14:28;29.70;;;19.85;;
23555;SDS011;11956;53.184;8.578;2023-05-07T04:17:32;28.25;;;20.13;;
23555;SDS011;11956;53.184;8.578;2023-05-07T04:20:34;26.30;;;19.27;;
23555;SDS011;11956;53.184;8.578;2023-05-07T04:23:38;26.63;;;18.35;;
23555;SDS011;11956;53.184;8.578;2023-05-07T04:26:43;23.80;;;18.30;;
23555;SDS011;11956;53.184;8.578;2023-05-07T04:29:44;26.50;;;19.65;;
23555;SDS011;11956;53.184;8.578;2023-05-07T04:32:48;27.08;;;19.92;;
23555;SDS011;11956;53.184;8.578;2023-05-07T04:35:49;25.60;;;18.90;;
23555;SDS011;11956;53.184;8.578;2023-05-07T04:38:50;26.40;;;18.83;;
23555;SDS011;11956;53.184;8.578;2023-05-07T04:41:52;24.48;;;18.35;;
23555;SDS011;11956;53.184;8.578;2023-05-07T04:44:54;26.38;;;18.48;;
23555;SDS011;11956;53.184;8.578;2023-05-07T04:47:57;26.95;;;19.60;;
23555;SDS011;11956;53.184;8.578;2023-05-07T04:50:57;25.13;;;18.27;;
23555;SDS011;11956;53.184;8.578;2023-05-07T04:53:58;22.90;;;17.27;;
23555;SDS011;11956;53.184;8.578;2023-05-07T04:57:03;24.40;;;17.33;;
23555;SDS011;11956;53.184;8.578;2023-05-07T05:00:05;24.35;;;17.10;;
23555;SDS011;11956;53.184;8.578;2023-05-07T05:03:09;24.60;;;17.27;;
23555;SDS011;11956;53.184;8.578;2023-05-07T05:06:13;23.48;;;17.50;;
23555;SDS011;11956;53.184;8.578;2023-05-07T05:09:15;22.92;;;16.65;;
23555;SDS011;11956;53.184;8.578;2023-05-07T05:12:16;20.05;;;15.38;;
23555;SDS011;11956;53.184;8.578;2023-05-07T05:15:18;19.27;;;14.25;;
23555;SDS011;11956;53.184;8.578;2023-05-07T05:18:19;18.52;;;13.60;;
23555;SDS011;11956;53.184;8.578;2023-05-07T05:21:21;17.63;;;13.13;;
23555;SDS011;11956;53.184;8.578;2023-05-07T05:24:25;17.08;;;12.85;;
23555;SDS011;11956;53.184;8.578;2023-05-07T05:27:26;20.23;;;14.18;;
23555;SDS011;11956;53.184;8.578;2023-05-07T05:30:28;17.52;;;13.52;;
23555;SDS011;11956;53.184;8.578;2023-05-07T05:33:29;18.70;;;13.98;;
23555;SDS011;11956;53.184;8.578;2023-05-07T05:36:37;19.55;;;14.10;;
23555;SDS011;11956;53.184;8.578;2023-05-07T05:39:38;18.63;;;13.48;;
23555;SDS011;11956;53.184;8.578;2023-05-07T05:42:40;15.90;;;12.90;;
23555;SDS011;11956;53.184;8.578;2023-05-07T05:45:42;16.45;;;12.88;;
23555;SDS011;11956;53.184;8.578;2023-05-07T05:48:44;17.88;;;13.52;;
23555;SDS011;11956;53.184;8.578;2023-05-07T05:51:45;17.13;;;13.18;;
23555;SDS011;11956;53.184;8.578;2023-05-07T05:54:49;17.25;;;12.60;;
23555;SDS011;11956;53.184;8.578;2023-05-07T05:57:52;17.70;;;13.07;;
23555;SDS011;11956;53.184;8.578;2023-05-07T06:00:54;16.35;;;12.73;;
23555;SDS011;11956;53.184;8.578;2023-05-07T06:03:58;15.68;;;12.23;;
23555;SDS011;11956;53.184;8.578;2023-05-07T06:06:59;16.25;;;13.18;;
23555;SDS011;11956;53.184;8.578;2023-05-07T06:10:00;17.80;;;13.35;;
23555;SDS011;11956;53.184;8.578;2023-05-07T06:13:03;16.33;;;13.38;;
23555;SDS011;11956;53.184;8.578;2023-05-07T06:16:06;17.73;;;13.05;;
23555;SDS011;11956;53.184;8.578;2023-05-07T06:19:07;15.20;;;12.32;;
23555;SDS011;11956;53.184;8.578;2023-05-07T06:22:08;14.95;;;11.65;;
23555;SDS011;11956;53.184;8.578;2023-05-07T06:25:10;13.07;;;10.88;;
23555;SDS011;11956;53.184;8.578;2023-05-07T06:28:12;12.93;;;11.00;;
23555;SDS011;11956;53.184;8.578;2023-05-07T06:31:16;12.00;;;10.70;;
23555;SDS011;11956;53.184;8.578;2023-05-07T06:34:34;11.68;;;9.40;;
23555;SDS011;11956;53.184;8.578;2023-05-07T06:37:35;10.93;;;9.20;;
23555;SDS011;11956;53.184;8.578;2023-05-07T06:40:40;9.70;;;8.60;;
23555;SDS011;11956;53.184;8.578;2023-05-07T06:43:41;9.63;;;8.63;;
23555;SDS011;11956;53.184;8.578;2023-05-07T06:47:21;8.52;;;7.63;;
23555;SDS011;11956;53.184;8.578;2023-05-07T06:50:26;9.60;;;7.65;;
23555;SDS011;11956;53.184;8.578;2023-05-07T06:53:30;8.75;;;7.72;;
23555;SDS011;11956;53.184;8.578;2023-05-07T06:56:33;10.15;;;8.13;;
23555;SDS011;11956;53.184;8.578;2023-05-07T06:59:36;9.35;;;8.10;;
23555;SDS011;11956;53.184;8.578;2023-05-07T07:02:37;9.13;;;8.07;;
23555;SDS011;11956;53.184;8.578;2023-05-07T07:05:40;8.48;;;7.57;;
23555;SDS011;11956;53.184;8.578;2023-05-07T07:08:42;8.98;;;7.88;;
23555;SDS011;11956;53.184;8.578;2023-05-07T07:11:45;9.68;;;7.68;;
23555;SDS011;11956;53.184;8.578;2023-05-07T07:14:47;8.43;;;7.07;;
23555;SDS011;11956;53.184;8.578;2023-05-07T07:17:48;9.27;;;7.50;;
23555;SDS011;11956;53.184;8.578;2023-05-07T07:20:49;7.93;;;7.03;;
23555;SDS011;11956;53.184;8.578;2023-05-07T07:23:50;11.20;;;7.32;;
23555;SDS011;11956;53.184;8.578;2023-05-07T07:26:53;8.57;;;7.60;;
23555;SDS011;11956;53.184;8.578;2023-05-07T07:29:56;8.82;;;7.72;;
23555;SDS011;11956;53.184;8.578;2023-05-07T07:32:58;8.10;;;6.80;;
23555;SDS011;11956;53.184;8.578;2023-05-07T07:36:04;8.18;;;7.10;;
23555;SDS011;11956;53.184;8.578;2023-05-07T07:39:07;9.43;;;7.47;;
23555;SDS011;11956;53.184;8.578;2023-05-07T07:42:08;7.93;;;7.13;;
23555;SDS011;11956;53.184;8.578;2023-05-07T07:45:09;8.32;;;7.18;;
23555;SDS011;11956;53.184;8.578;2023-05-07T07:48:15;8.57;;;7.00;;
23555;SDS011;11956;53.184;8.578;2023-05-07T07:51:16;7.90;;;6.93;;
23555;SDS011;11956;53.184;8.578;2023-05-07T07:54:18;9.25;;;7.78;;
23555;SDS011;11956;53.184;8.578;2023-05-07T07:57:19;8.07;;;7.07;;
23555;SDS011;11956;53.184;8.578;2023-05-07T08:00:21;10.35;;;8.20;;
23555;SDS011;11956;53.184;8.578;2023-05-07T08:03:26;8.93;;;7.57;;
23555;SDS011;11956;53.184;8.578;2023-05-07T08:06:32;8.52;;;7.63;;
23555;SDS011;11956;53.184;8.578;2023-05-07T08:09:33;9.20;;;8.10;;
23555;SDS011;11956;53.184;8.578;2023-05-07T08:12:36;8.95;;;8.05;;
23555;SDS011;11956;53.184;8.578;2023-05-07T08:15:37;9.25;;;7.38;;
23555;SDS011;11956;53.184;8.578;2023-05-07T08:18:38;13.40;;;7.57;;
23555;SDS011;11956;53.184;8.578;2023-05-07T08:21:39;8.82;;;6.97;;
23555;SDS011;11956;53.184;8.578;2023-05-07T08:24:42;7.72;;;6.93;;
23555;SDS011;11956;53.184;8.578;2023-05-07T08:27:44;7.63;;;6.82;;
23555;SDS011;11956;53.184;8.578;2023-05-07T08:30:46;8.85;;;7.20;;
23555;SDS011;11956;53.184;8.578;2023-05-07T08:33:47;7.32;;;6.28;;
23555;SDS011;11956;53.184;8.578;2023-05-07T08:36:48;11.15;;;7.13;;
23555;SDS011;11956;53.184;8.578;2023-05-07T08:39:51;9.65;;;6.97;;
23555;SDS011;11956;53.184;8.578;2023-05-07T08:42:55;7.70;;;6.70;;
23555;SDS011;11956;53.184;8.578;2023-05-07T08:45:57;7.63;;;5.95;;
23555;SDS011;11956;53.184;8.578;2023-05-07T08:49:05;9.00;;;6.75;;
23555;SDS011;11956;53.184;8.578;2023-05-07T08:52:06;8.07;;;6.03;;
23555;SDS011;11956;53.184;8.578;2023-05-07T08:55:08;7.75;;;6.38;;
23555;SDS011;11956;53.184;8.578;2023-05-07T08:58:10;7.55;;;6.22;;
23555;SDS011;11956;53.184;8.578;2023-05-07T09:01:13;8.05;;;6.38;;
23555;SDS011;11956;53.184;8.578;2023-05-07T09:04:18;8.88;;;6.30;;
23555;SDS011;11956;53.184;8.578;2023-05-07T09:07:20;8.68;;;6.30;;
23555;SDS011;11956;53.184;8.578;2023-05-07T09:10:22;7.38;;;6.57;;
23555;SDS011;11956;53.184;8.578;2023-05-07T09:13:23;6.97;;;6.28;;
23555;SDS011;11956;53.184;8.578;2023-05-07T09:16:25;8.07;;;5.78;;
23555;SDS011;11956;53.184;8.578;2023-05-07T09:19:27;7.15;;;6.03;;
23555;SDS011;11956;53.184;8.578;2023-05-07T09:22:40;8.23;;;5.90;;
23555;SDS011;11956;53.184;8.578;2023-05-07T09:28:55;9.82;;;6.40;;
23555;SDS011;11956;53.184;8.578;2023-05-07T09:31:56;7.47;;;6.22;;
23555;SDS011;11956;53.184;8.578;2023-05-07T09:34:58;7.47;;;5.78;;
23555;SDS011;11956;53.184;8.578;2023-05-07T09:38:02;7.38;;;5.95;;
23555;SDS011;11956;53.184;8.578;2023-05-07T09:41:06;7.78;;;6.45;;
23555;SDS011;11956;53.184;8.578;2023-05-07T09:44:32;7.63;;;6.60;;
23555;SDS011;11956;53.184;8.578;2023-05-07T09:50:40;8.32;;;6.55;;
23555;SDS011;11956;53.184;8.578;2023-05-07T09:53:56;7.85;;;6.80;;
23555;SDS011;11956;53.184;8.578;2023-05-07T09:57:01;7.97;;;6.57;;
23555;SDS011;11956;53.184;8.578;2023-05-07T10:00:04;8.63;;;6.50;;
23555;SDS011;11956;53.184;8.578;2023-05-07T10:03:20;9.30;;;6.93;;
23555;SDS011;11956;53.184;8.578;2023-05-07T10:06:30;8.43;;;7.18;;
23555;SDS011;11956;53.184;8.578;2023-05-07T10:09:33;8.70;;;7.63;;
23555;SDS011;11956;53.184;8.578;2023-05-07T10:12:40;9.05;;;7.35;;
23555;SDS011;11956;53.184;8.578;2023-05-07T10:15:47;8.77;;;7.88;;
23555;SDS011;11956;53.184;8.578;2023-05-07T10:18:49;10.10;;;7.18;;
23555;SDS011;11956;53.184;8.578;2023-05-07T10:21:55;8.90;;;7.82;;
23555;SDS011;11956;53.184;8.578;2023-05-07T10:25:06;9.55;;;7.88;;
23555;SDS011;11956;53.184;8.578;2023-05-07T10:28:19;8.73;;;7.78;;
23555;SDS011;11956;53.184;8.578;2023-05-07T10:34:45;9.77;;;8.55;;
23555;SDS011;11956;53.184;8.578;2023-05-07T10:37:50;9.25;;;8.20;;
23555;SDS011;11956;53.184;8.578;2023-05-07T10:40:53;8.88;;;7.78;;
23555;SDS011;11956;53.184;8.578;2023-05-07T10:43:54;8.27;;;7.43;;
23555;SDS011;11956;53.184;8.578;2023-05-07T10:56:26;10.13;;;7.70;;
23555;SDS011;11956;53.184;8.578;2023-05-07T10:59:36;9.77;;;7.22;;
23555;SDS011;11956;53.184;8.578;2023-05-07T11:06:12;9.65;;;8.27;;
23555;SDS011;11956;53.184;8.578;2023-05-07T11:09:20;10.05;;;7.35;;
23555;SDS011;11956;53.184;8.578;2023-05-07T11:15:38;8.68;;;7.25;;
23555;SDS011;11956;53.184;8.578;2023-05-07T11:19:00;10.07;;;8.03;;
23555;SDS011;11956;53.184;8.578;2023-05-07T11:22:25;9.85;;;7.88;;
23555;SDS011;11956;53.184;8.578;2023-05-07T11:25:51;14.10;;;8.15;;
23555;SDS011;11956;53.184;8.578;2023-05-07T11:29:03;8.55;;;7.63;;
23555;SDS011;11956;53.184;8.578;2023-05-07T11:32:12;8.50;;;7.60;;
23555;SDS011;11956;53.184;8.578;2023-05-07T11:35:22;10.45;;;7.95;;
23555;SDS011;11956;53.184;8.578;2023-05-07T11:38:25;11.65;;;7.75;;
23555;SDS011;11956;53.184;8.578;2023-05-07T11:41:35;7.70;;;6.90;;
23555;SDS011;11956;53.184;8.578;2023-05-07T11:44:43;10.35;;;8.55;;
23555;SDS011;11956;53.184;8.578;2023-05-07T11:47:46;9.05;;;7.63;;
23555;SDS011;11956;53.184;8.578;2023-05-07T11:50:50;9.23;;;8.18;;
23555;SDS011;11956;53.184;8.578;2023-05-07T11:57:04;9.25;;;8.10;;
23555;SDS011;11956;53.184;8.578;2023-05-07T12:00:07;10.63;;;8.25;;
23555;SDS011;11956;53.184;8.578;2023-05-07T12:03:15;8.65;;;7.28;;
23555;SDS011;11956;53.184;8.578;2023-05-07T12:06:16;10.05;;;7.60;;
23555;SDS011;11956;53.184;8.578;2023-05-07T12:09:17;8.65;;;7.57;;
23555;SDS011;11956;53.184;8.578;2023-05-07T12:12:18;8.40;;;7.10;;
23555;SDS011;11956;53.184;8.578;2023-05-07T12:15:22;7.80;;;6.65;;
23555;SDS011;11956;53.184;8.578;2023-05-07T12:18:23;7.25;;;6.55;;
23555;SDS011;11956;53.184;8.578;2023-05-07T12:21:25;7.90;;;7.10;;
23555;SDS011;11956;53.184;8.578;2023-05-07T12:24:26;8.32;;;6.70;;
23555;SDS011;11956;53.184;8.578;2023-05-07T12:27:27;9.52;;;6.70;;
23555;SDS011;11956;53.184;8.578;2023-05-07T12:30:28;7.78;;;6.68;;
23555;SDS011;11956;53.184;8.578;2023-05-07T12:33:29;8.00;;;7.15;;
23555;SDS011;11956;53.184;8.578;2023-05-07T12:36:38;7.25;;;6.55;;
23555;SDS011;11956;53.184;8.578;2023-05-07T12:40:02;8.63;;;7.30;;
23555;SDS011;11956;53.184;8.578;2023-05-07T12:43:18;8.40;;;7.47;;
23555;SDS011;11956;53.184;8.578;2023-05-07T12:46:27;7.43;;;6.72;;
23555;SDS011;11956;53.184;8.578;2023-05-07T12:49:28;6.93;;;6.22;;
23555;SDS011;11956;53.184;8.578;2023-05-07T12:52:29;8.05;;;6.88;;
23555;SDS011;11956;53.184;8.578;2023-05-07T12:55:31;7.20;;;6.50;;
23555;SDS011;11956;53.184;8.578;2023-05-07T12:58:40;7.88;;;6.85;;
23555;SDS011;11956;53.184;8.578;2023-05-07T13:01:41;6.43;;;5.72;;
23555;SDS011;11956;53.184;8.578;2023-05-07T13:04:45;9.10;;;6.43;;
23555;SDS011;11956;53.184;8.578;2023-05-07T13:07:52;9.80;;;6.38;;
23555;SDS011;11956;53.184;8.578;2023-05-07T13:10:54;7.22;;;5.97;;
23555;SDS011;11956;53.184;8.578;2023-05-07T13:13:56;7.18;;;6.10;;
23555;SDS011;11956;53.184;8.578;2023-05-07T13:16:57;6.35;;;5.70;;
23555;SDS011;11956;53.184;8.578;2023-05-07T13:19:58;7.53;;;6.60;;
23555;SDS011;11956;53.184;8.578;2023-05-07T13:22:59;7.18;;;6.45;;
23555;SDS011;11956;53.184;8.578;2023-05-07T13:26:02;6.83;;;6.13;;
23555;SDS011;11956;53.184;8.578;2023-05-07T13:29:02;7.47;;;6.10;;
23555;SDS011;11956;53.184;8.578;2023-05-07T13:32:03;6.97;;;6.18;;
23555;SDS011;11956;53.184;8.578;2023-05-07T13:35:04;6.55;;;5.90;;
23555;SDS011;11956;53.184;8.578;2023-05-07T13:38:06;7.32;;;6.47;;
23555;SDS011;11956;53.184;8.578;2023-05-07T13:41:07;6.75;;;6.05;;
23555;SDS011;11956;53.184;8.578;2023-05-07T13:44:08;7.40;;;5.57;;
23555;SDS011;11956;53.184;8.578;2023-05-07T13:47:10;6.50;;;5.90;;
23555;SDS011;11956;53.184;8.578;2023-05-07T13:50:11;6.38;;;5.40;;
23555;SDS011;11956;53.184;8.578;2023-05-07T13:53:13;6.05;;;5.40;;
23555;SDS011;11956;53.184;8.578;2023-05-07T13:56:18;6.25;;;5.60;;
23555;SDS011;11956;53.184;8.578;2023-05-07T13:59:20;8.23;;;5.80;;
23555;SDS011;11956;53.184;8.578;2023-05-07T14:02:21;6.05;;;4.88;;
23555;SDS011;11956;53.184;8.578;2023-05-07T14:05:22;5.28;;;4.60;;
23555;SDS011;11956;53.184;8.578;2023-05-07T14:08:23;5.32;;;4.70;;
23555;SDS011;11956;53.184;8.578;2023-05-07T14:11:25;5.18;;;4.63;;
23555;SDS011;11956;53.184;8.578;2023-05-07T14:14:26;4.57;;;4.13;;
23555;SDS011;11956;53.184;8.578;2023-05-07T14:17:27;5.30;;;4.80;;
23555;SDS011;11956;53.184;8.578;2023-05-07T14:20:28;7.15;;;4.28;;
23555;SDS011;11956;53.184;8.578;2023-05-07T14:23:30;4.43;;;4.03;;
23555;SDS011;11956;53.184;8.578;2023-05-07T14:26:32;4.85;;;4.40;;
23555;SDS011;11956;53.184;8.578;2023-05-07T14:29:33;5.13;;;4.63;;
23555;SDS011;11956;53.184;8.578;2023-05-07T14:32:35;6.38;;;4.90;;
23555;SDS011;11956;53.184;8.578;2023-05-07T14:35:36;5.20;;;4.50;;
23555;SDS011;11956;53.184;8.578;2023-05-07T14:38:37;8.23;;;4.43;;
23555;SDS011;11956;53.184;8.578;2023-05-07T14:41:38;6.53;;;4.47;;
23555;SDS011;11956;53.184;8.578;2023-05-07T14:44:39;5.00;;;4.47;;
23555;SDS011;11956;53.184;8.578;2023-05-07T14:47:41;5.72;;;5.13;;
23555;SDS011;11956;53.184;8.578;2023-05-07T14:50:42;5.32;;;4.82;;
23555;SDS011;11956;53.184;8.578;2023-05-07T14:53:43;4.57;;;4.18;;
23555;SDS011;11956;53.184;8.578;2023-05-07T14:56:45;5.03;;;4.53;;
23555;SDS011;11956;53.184;8.578;2023-05-07T14:59:46;6.60;;;4.70;;
23555;SDS011;11956;53.184;8.578;2023-05-07T15:02:47;5.38;;;4.72;;
23555;SDS011;11956;53.184;8.578;2023-05-07T15:05:48;8.90;;;5.40;;
23555;SDS011;11956;53.184;8.578;2023-05-07T15:08:51;5.25;;;4.75;;
23555;SDS011;11956;53.184;8.578;2023-05-07T15:11:52;6.57;;;4.97;;
23555;SDS011;11956;53.184;8.578;2023-05-07T15:14:53;6.05;;;5.45;;
23555;SDS011;11956;53.184;8.578;2023-05-07T15:17:54;5.68;;;5.18;;
23555;SDS011;11956;53.184;8.578;2023-05-07T15:20:55;8.02;;;5.38;;
23555;SDS011;11956;53.184;8.578;2023-05-07T15:23:57;6.10;;;5.23;;
23555;SDS011;11956;53.184;8.578;2023-05-07T15:26:58;4.97;;;4.55;;
23555;SDS011;11956;53.184;8.578;2023-05-07T15:30:01;5.95;;;5.35;;
23555;SDS011;11956;53.184;8.578;2023-05-07T15:33:02;5.30;;;4.80;;
23555;SDS011;11956;53.184;8.578;2023-05-07T15:36:04;5.85;;;5.15;;
23555;SDS011;11956;53.184;8.578;2023-05-07T15:39:06;6.55;;;4.97;;
23555;SDS011;11956;53.184;8.578;2023-05-07T15:42:07;8.73;;;5.22;;
23555;SDS011;11956;53.184;8.578;2023-05-07T15:45:08;5.25;;;4.75;;
23555;SDS011;11956;53.184;8.578;2023-05-07T15:48:09;6.93;;;5.15;;
23555;SDS011;11956;53.184;8.578;2023-05-07T15:51:10;5.68;;;4.78;;
23555;SDS011;11956;53.184;8.578;2023-05-07T15:54:12;6.45;;;5.70;;
23555;SDS011;11956;53.184;8.578;2023-05-07T15:57:13;5.57;;;5.00;;
23555;SDS011;11956;53.184;8.578;2023-05-07T16:00:14;5.75;;;5.15;;
23555;SDS011;11956;53.184;8.578;2023-05-07T16:03:16;5.10;;;4.50;;
23555;SDS011;11956;53.184;8.578;2023-05-07T16:06:18;5.22;;;4.72;;
23555;SDS011;11956;53.184;8.578;2023-05-07T16:09:19;4.90;;;4.40;;
23555;SDS011;11956;53.184;8.578;2023-05-07T16:12:20;5.63;;;4.97;;
23555;SDS011;11956;53.184;8.578;2023-05-07T16:15:22;12.50;;;4.90;;
23555;SDS011;11956;53.184;8.578;2023-05-07T16:18:22;7.63;;;5.72;;
23555;SDS011;11956;53.184;8.578;2023-05-07T16:21:23;7.57;;;5.07;;
23555;SDS011;11956;53.184;8.578;2023-05-07T16:24:24;5.97;;;5.18;;
23555;SDS011;11956;53.184;8.578;2023-05-07T16:27:25;5.10;;;4.60;;
23555;SDS011;11956;53.184;8.578;2023-05-07T16:30:26;4.95;;;4.22;;
23555;SDS011;11956;53.184;8.578;2023-05-07T16:33:27;5.82;;;4.38;;
23555;SDS011;11956;53.184;8.578;2023-05-07T16:36:28;5.78;;;4.30;;
23555;SDS011;11956;53.184;8.578;2023-05-07T16:39:29;5.32;;;4.20;;
23555;SDS011;11956;53.184;8.578;2023-05-07T16:42:30;5.35;;;4.80;;
23555;SDS011;11956;53.184;8.578;2023-05-07T16:45:31;6.45;;;4.95;;
23555;SDS011;11956;53.184;8.578;2023-05-07T16:48:32;6.72;;;4.90;;
23555;SDS011;11956;53.184;8.578;2023-05-07T16:51:33;6.63;;;4.43;;
23555;SDS011;11956;53.184;8.578;2023-05-07T16:54:34;5.35;;;4.85;;
23555;SDS011;11956;53.184;8.578;2023-05-07T16:57:36;4.97;;;4.47;;
23555;SDS011;11956;53.184;8.578;2023-05-07T17:00:37;6.93;;;4.85;;
23555;SDS011;11956;53.184;8.578;2023-05-07T17:03:38;6.07;;;5.15;;
23555;SDS011;11956;53.184;8.578;2023-05-07T17:06:39;6.03;;;4.82;;
23555;SDS011;11956;53.184;8.578;2023-05-07T17:09:40;6.30;;;4.72;;
23555;SDS011;11956;53.184;8.578;2023-05-07T17:12:41;5.45;;;4.68;;
23555;SDS011;11956;53.184;8.578;2023-05-07T17:15:42;5.57;;;5.07;;
23555;SDS011;11956;53.184;8.578;2023-05-07T17:18:45;5.47;;;4.70;;
23555;SDS011;11956;53.184;8.578;2023-05-07T17:21:46;5.82;;;5.22;;
23555;SDS011;11956;53.184;8.578;2023-05-07T17:24:47;5.00;;;4.50;;
23555;SDS011;11956;53.184;8.578;2023-05-07T17:27:48;5.68;;;5.07;;
23555;SDS011;11956;53.184;8.578;2023-05-07T17:30:49;5.90;;;5.30;;
23555;SDS011;11956;53.184;8.578;2023-05-07T17:33:50;5.65;;;4.72;;
23555;SDS011;11956;53.184;8.578;2023-05-07T17:36:51;5.93;;;4.90;;
23555;SDS011;11956;53.184;8.578;2023-05-07T17:39:51;5.88;;;5.13;;
23555;SDS011;11956;53.184;8.578;2023-05-07T17:42:52;5.53;;;5.03;;
23555;SDS011;11956;53.184;8.578;2023-05-07T17:45:53;5.32;;;4.82;;
23555;SDS011;11956;53.184;8.578;2023-05-07T17:48:54;5.25;;;4.75;;
23555;SDS011;11956;53.184;8.578;2023-05-07T17:51:56;5.55;;;4.63;;
23555;SDS011;11956;53.184;8.578;2023-05-07T17:54:57;6.45;;;4.60;;
23555;SDS011;11956;53.184;8.578;2023-05-07T17:57:58;7.63;;;4.25;;
23555;SDS011;11956;53.184;8.578;2023-05-07T18:00:59;4.93;;;4.35;;
23555;SDS011;11956;53.184;8.578;2023-05-07T18:04:00;4.93;;;4.10;;
23555;SDS011;11956;53.184;8.578;2023-05-07T18:07:01;6.13;;;4.30;;
23555;SDS011;11956;53.184;8.578;2023-05-07T18:10:02;5.20;;;4.07;;
23555;SDS011;11956;53.184;8.578;2023-05-07T18:13:03;5.25;;;4.18;;
23555;SDS011;11956;53.184;8.578;2023-05-07T18:16:04;5.45;;;4.13;;
23555;SDS011;11956;53.184;8.578;2023-05-07T18:19:06;4.80;;;4.30;;
23555;SDS011;11956;53.184;8.578;2023-05-07T18:22:07;4.35;;;3.95;;
23555;SDS011;11956;53.184;8.578;2023-05-07T18:25:08;6.13;;;4.18;;
23555;SDS011;11956;53.184;8.578;2023-05-07T18:28:09;4.35;;;3.92;;
23555;SDS011;11956;53.184;8.578;2023-05-07T18:31:10;4.25;;;3.85;;
23555;SDS011;11956;53.184;8.578;2023-05-07T18:34:11;5.60;;;4.00;;
23555;SDS011;11956;53.184;8.578;2023-05-07T18:37:13;4.53;;;4.07;;
23555;SDS011;11956;53.184;8.578;2023-05-07T18:40:15;5.53;;;3.90;;
23555;SDS011;11956;53.184;8.578;2023-05-07T18:43:17;5.10;;;3.80;;
23555;SDS011;11956;53.184;8.578;2023-05-07T18:46:18;4.87;;;4.10;;